Time;durP1;ratioP1;P1;durP2;ratioP2;P2;SDS_P1;SDS_P2;PMS_P1;PMS_P2;Temp;Humidity;BMP_temperature;BMP_pressure;BME280_temperature;BME280_humidity;BME280_pressure;Samples;Min_cycle;Max_cycle;Signal;HPM_P1;HPM_P2
2022/03/18 00:00:14;;;;;;;8.70;3.30;;;2.90;99.90;;;;;;5006793;28;20510;-45
2022/03/18 00:02:41;;;;;;;7.63;3.27;;;2.80;99.90;;;;;;4993002;28;20535;-43
2022/03/18 00:05:10;;;;;;;12.47;3.97;;;2.70;99.90;;;;;;5016809;28;20247;-45
2022/03/18 00:07:36;;;;;;;6.43;3.17;;;2.60;99.90;;;;;;5006052;28;20476;-44
2022/03/18 00:10:04;;;;;;;4.97;3.03;;;2.70;99.90;;;;;;4990663;28;20441;-45
2022/03/18 00:12:31;;;;;;;5.17;2.77;;;2.60;99.90;;;;;;5011914;28;20229;-43
2022/03/18 00:14:58;;;;;;;6.93;2.87;;;2.70;99.90;;;;;;4998214;28;20424;-45
2022/03/18 00:17:25;;;;;;;5.10;3.00;;;2.90;99.90;;;;;;5019911;28;20520;-44
2022/03/18 00:19:52;;;;;;;4.07;2.53;;;2.80;99.90;;;;;;4992765;28;20213;-44
2022/03/18 00:22:20;;;;;;;6.33;2.90;;;2.80;99.90;;;;;;5006609;28;20306;-45
2022/03/18 00:24:47;;;;;;;8.53;2.67;;;2.70;99.90;;;;;;4993119;28;20215;-45
2022/03/18 00:27:14;;;;;;;7.07;2.43;;;2.60;99.90;;;;;;5009730;28;20275;-45
2022/03/18 00:29:41;;;;;;;5.70;2.50;;;2.50;99.90;;;;;;4986678;28;20328;-44
2022/03/18 00:32:09;;;;;;;6.63;2.90;;;2.50;99.90;;;;;;5011646;28;20564;-45
2022/03/18 00:34:36;;;;;;;8.90;2.97;;;2.50;99.90;;;;;;4994727;28;20211;-43
2022/03/18 00:37:03;;;;;;;5.50;2.43;;;2.50;99.90;;;;;;5015543;28;20471;-45
2022/03/18 00:39:31;;;;;;;4.50;2.50;;;2.50;99.90;;;;;;5000631;28;20216;-44
2022/03/18 00:41:58;;;;;;;11.57;3.43;;;2.50;99.90;;;;;;4985507;28;20405;-44
2022/03/18 00:44:25;;;;;;;9.30;3.30;;;2.60;99.90;;;;;;4998305;28;20242;-45
2022/03/18 00:46:52;;;;;;;5.50;2.63;;;2.70;99.90;;;;;;4989613;28;20708;-45
2022/03/18 00:52:05;;;;;;;9.50;2.73;;;2.60;99.90;;;;;;5017464;28;20508;-46
2022/03/18 00:54:34;;;;;;;8.03;2.67;;;2.50;99.90;;;;;;4990759;28;20266;-46
2022/03/18 00:57:01;;;;;;;6.80;2.43;;;2.40;99.90;;;;;;4997917;28;20552;-46
2022/03/18 00:59:29;;;;;;;8.03;3.03;;;2.50;99.90;;;;;;5001800;28;20282;-45
2022/03/18 01:01:57;;;;;;;4.97;2.33;;;2.40;99.90;;;;;;5000362;28;20752;-46
2022/03/18 01:04:25;;;;;;;6.93;2.63;;;2.40;99.90;;;;;;5004721;28;20654;-44
2022/03/18 01:06:53;;;;;;;6.47;2.53;;;2.40;99.90;;;;;;4987084;28;20503;-46
2022/03/18 01:09:21;;;;;;;6.83;2.97;;;2.40;99.90;;;;;;4994633;28;20307;-45
2022/03/18 01:11:51;;;;;;;9.33;3.20;;;2.40;99.90;;;;;;5002341;28;20287;-46
2022/03/18 01:14:19;;;;;;;7.63;3.37;;;2.40;99.90;;;;;;5001004;28;20449;-44
2022/03/18 01:16:45;;;;;;;6.20;3.10;;;2.40;99.90;;;;;;5007459;28;20340;-45
2022/03/18 01:19:13;;;;;;;12.20;3.57;;;2.40;99.90;;;;;;4999616;28;20634;-44
2022/03/18 01:21:40;;;;;;;8.30;3.57;;;2.30;99.90;;;;;;5008122;28;20309;-44
2022/03/18 01:24:07;;;;;;;6.63;3.27;;;2.30;99.90;;;;;;4996929;28;20227;-46
2022/03/18 01:26:34;;;;;;;5.30;3.10;;;2.20;99.90;;;;;;5000315;28;20228;-44
2022/03/18 01:29:02;;;;;;;9.87;3.50;;;2.10;99.90;;;;;;5004295;28;20283;-46
2022/03/18 01:31:30;;;;;;;6.60;3.80;;;2.10;99.90;;;;;;5003382;28;20209;-45
2022/03/18 01:33:57;;;;;;;7.20;3.20;;;2.00;99.90;;;;;;5002780;28;20301;-46
2022/03/18 01:36:25;;;;;;;5.63;3.30;;;2.10;99.90;;;;;;4998965;28;21100;-45
2022/03/18 01:38:51;;;;;;;8.00;3.47;;;2.10;99.90;;;;;;4998157;28;20218;-45
2022/03/18 01:41:18;;;;;;;9.23;3.70;;;2.10;99.90;;;;;;4989399;28;20593;-45
2022/03/18 01:43:46;;;;;;;11.97;3.43;;;2.10;99.90;;;;;;5004228;28;20392;-44
2022/03/18 01:46:17;;;;;;;8.63;3.63;;;2.10;99.90;;;;;;5001116;28;20543;-45
2022/03/18 01:48:44;;;;;;;6.93;3.23;;;2.20;99.90;;;;;;4999809;28;20212;-44
2022/03/18 01:51:10;;;;;;;6.23;3.37;;;2.20;99.90;;;;;;4987938;28;20321;-45
2022/03/18 01:53:39;;;;;;;8.63;2.93;;;2.10;99.90;;;;;;5002870;28;20736;-45
2022/03/18 01:56:07;;;;;;;7.03;3.20;;;2.00;99.90;;;;;;4990887;28;20225;-43
2022/03/18 01:58:34;;;;;;;6.57;3.10;;;2.00;99.90;;;;;;5003700;28;20212;-44
2022/03/18 02:01:01;;;;;;;9.47;3.00;;;2.00;99.90;;;;;;4997875;28;22411;-43
2022/03/18 02:03:29;;;;;;;10.37;3.30;;;1.90;99.90;;;;;;4994598;28;20225;-45
2022/03/18 02:05:57;;;;;;;9.53;3.13;;;1.90;99.90;;;;;;5020055;28;20214;-43
2022/03/18 02:08:25;;;;;;;14.90;3.03;;;1.90;99.90;;;;;;5002812;28;20568;-45
2022/03/18 02:10:52;;;;;;;11.70;3.70;;;1.90;99.90;;;;;;4996552;28;20215;-44
2022/03/18 02:13:19;;;;;;;7.77;3.13;;;1.90;99.90;;;;;;5005985;28;20448;-45
2022/03/18 02:15:46;;;;;;;12.40;3.13;;;1.90;99.90;;;;;;5018351;28;20288;-43
2022/03/18 02:18:13;;;;;;;8.63;3.50;;;1.90;99.90;;;;;;4993171;28;20539;-45
2022/03/18 02:20:41;;;;;;;6.63;2.90;;;1.90;99.90;;;;;;5011538;28;20210;-45
2022/03/18 02:23:09;;;;;;;6.97;3.13;;;1.80;99.90;;;;;;4999885;28;20227;-45
2022/03/18 02:25:36;;;;;;;5.67;3.10;;;1.90;99.90;;;;;;5011006;28;20335;-44
2022/03/18 02:28:04;;;;;;;7.47;3.57;;;1.70;99.90;;;;;;4994738;28;20404;-43
2022/03/18 02:30:33;;;;;;;9.77;3.43;;;1.70;99.90;;;;;;4999336;28;20440;-45
2022/03/18 02:33:01;;;;;;;6.27;2.97;;;1.80;99.90;;;;;;5005926;28;20242;-43
2022/03/18 02:35:28;;;;;;;7.03;2.93;;;1.80;99.90;;;;;;4995603;28;20422;-45
2022/03/18 02:37:55;;;;;;;6.37;2.53;;;1.70;99.90;;;;;;4999208;28;20220;-43
2022/03/18 02:40:24;;;;;;;7.00;2.63;;;1.70;99.90;;;;;;5006332;28;20522;-45
2022/03/18 02:42:52;;;;;;;6.00;2.40;;;1.70;99.90;;;;;;5014434;28;20492;-44
2022/03/18 02:45:19;;;;;;;9.53;2.93;;;1.70;99.90;;;;;;4988783;28;20554;-45
2022/03/18 02:47:46;;;;;;;7.10;2.63;;;1.70;99.90;;;;;;5014432;28;20234;-44
2022/03/18 02:50:15;;;;;;;6.17;2.77;;;1.70;99.90;;;;;;4978888;28;20363;-45
2022/03/18 02:52:42;;;;;;;6.80;2.70;;;1.60;99.90;;;;;;5018009;28;20415;-45
2022/03/18 02:55:10;;;;;;;8.90;2.80;;;1.70;99.90;;;;;;4991905;28;20202;-45
2022/03/18 02:57:38;;;;;;;11.43;2.97;;;1.70;99.90;;;;;;5004599;28;20226;-45
2022/03/18 03:00:06;;;;;;;3.17;2.10;;;1.70;99.90;;;;;;4987514;28;20288;-43
2022/03/18 03:02:34;;;;;;;5.03;2.70;;;1.70;99.90;;;;;;5003529;28;20468;-45
2022/03/18 03:08:00;;;;;;;10.50;2.73;;;1.60;99.90;;;;;;5007124;28;20309;-44
2022/03/18 03:10:28;;;;;;;4.53;2.83;;;1.70;99.90;;;;;;4990407;28;20253;-45
2022/03/18 03:12:57;;;;;;;12.27;2.93;;;1.70;99.90;;;;;;4999705;28;20239;-43
2022/03/18 03:15:24;;;;;;;4.47;2.60;;;1.80;99.90;;;;;;4997682;28;20814;-44
2022/03/18 03:17:51;;;;;;;7.83;2.80;;;1.80;99.90;;;;;;5014031;28;20212;-45
2022/03/18 03:20:18;;;;;;;9.27;2.77;;;1.90;99.90;;;;;;5000209;28;20877;-45
2022/03/18 03:22:45;;;;;;;6.87;3.00;;;2.00;99.90;;;;;;5015130;28;20226;-44
2022/03/18 03:25:11;;;;;;;9.83;2.90;;;2.00;99.90;;;;;;4983041;28;22989;-44
2022/03/18 03:27:38;;;;;;;3.47;2.67;;;2.00;99.90;;;;;;5011309;28;20206;-44
2022/03/18 03:30:09;;;;;;;13.97;2.87;;;2.00;99.90;;;;;;4983903;28;20675;-48
2022/03/18 03:32:37;;;;;;;8.47;3.03;;;1.90;99.90;;;;;;5016556;28;20235;-44
2022/03/18 03:35:05;;;;;;;9.13;3.57;;;1.80;99.90;;;;;;4997076;28;20211;-44
2022/03/18 03:37:31;;;;;;;11.30;3.50;;;1.80;99.90;;;;;;5007435;28;20235;-44
2022/03/18 03:39:58;;;;;;;8.37;3.10;;;1.80;99.90;;;;;;5003237;28;20277;-45
2022/03/18 03:42:25;;;;;;;10.23;3.03;;;1.70;99.90;;;;;;4991989;28;22271;-44
2022/03/18 03:44:52;;;;;;;7.27;3.40;;;1.70;99.90;;;;;;5001755;28;20523;-45
2022/03/18 03:47:20;;;;;;;11.70;4.07;;;1.70;99.90;;;;;;5007388;28;20281;-45
2022/03/18 03:49:47;;;;;;;4.73;2.90;;;1.80;99.90;;;;;;4988604;28;20407;-44
2022/03/18 03:52:14;;;;;;;7.13;3.77;;;1.90;99.90;;;;;;5003839;28;20233;-45
2022/03/18 03:54:42;;;;;;;8.40;3.20;;;2.00;99.90;;;;;;5011366;28;20230;-45
2022/03/18 03:57:09;;;;;;;8.80;3.30;;;2.00;99.90;;;;;;4988275;28;20474;-44
2022/03/18 03:59:36;;;;;;;8.60;3.40;;;2.00;99.90;;;;;;4997116;28;20518;-45
2022/03/18 04:02:04;;;;;;;15.17;4.03;;;2.00;99.90;;;;;;5001314;28;20205;-44
2022/03/18 04:04:32;;;;;;;8.83;3.73;;;2.00;99.90;;;;;;4993344;28;20210;-45
2022/03/18 04:07:00;;;;;;;10.93;3.80;;;2.10;99.90;;;;;;5004246;28;20680;-44
2022/03/18 04:09:27;;;;;;;8.17;3.77;;;2.10;99.90;;;;;;4997773;28;20217;-45
2022/03/18 04:11:54;;;;;;;8.50;3.97;;;2.10;99.90;;;;;;4986338;28;20617;-44
2022/03/18 04:14:21;;;;;;;9.73;3.63;;;2.10;99.90;;;;;;5010062;28;20773;-45
2022/03/18 04:16:48;;;;;;;7.70;3.90;;;2.00;99.90;;;;;;4974655;28;20459;-44
2022/03/18 04:19:14;;;;;;;9.07;4.37;;;2.00;99.90;;;;;;5009398;28;20283;-45
2022/03/18 04:21:43;;;;;;;11.07;4.17;;;2.00;99.90;;;;;;5000448;28;20256;-45
2022/03/18 04:24:10;;;;;;;5.37;2.93;;;2.00;99.90;;;;;;4998216;28;20496;-45
2022/03/18 04:26:37;;;;;;;12.80;3.73;;;2.00;99.90;;;;;;5010398;28;20694;-48
2022/03/18 04:29:04;;;;;;;8.67;3.63;;;1.80;99.90;;;;;;4992828;28;20214;-43
2022/03/18 04:31:31;;;;;;;6.50;3.33;;;1.90;99.90;;;;;;4987747;28;20214;-49
2022/03/18 04:33:58;;;;;;;12.17;3.63;;;2.00;99.90;;;;;;4999907;28;22421;-44
2022/03/18 04:36:24;;;;;;;7.87;3.90;;;1.90;99.90;;;;;;5004641;28;20787;-47
2022/03/18 04:38:53;;;;;;;11.43;3.57;;;1.90;99.90;;;;;;4991295;28;20422;-43
2022/03/18 04:41:20;;;;;;;5.93;3.17;;;1.90;99.90;;;;;;5001701;28;20222;-43
2022/03/18 04:43:46;;;;;;;4.03;3.10;;;1.80;99.90;;;;;;4982055;28;20614;-45
2022/03/18 04:46:14;;;;;;;8.50;3.90;;;1.70;99.90;;;;;;5008657;28;20308;-44
2022/03/18 04:48:40;;;;;;;5.57;3.37;;;1.80;99.90;;;;;;4974270;28;20294;-46
2022/03/18 04:51:08;;;;;;;6.60;2.90;;;1.80;99.90;;;;;;5014410;28;20232;-44
2022/03/18 04:53:36;;;;;;;11.03;3.50;;;1.80;99.90;;;;;;4995049;28;20237;-49
2022/03/18 04:56:04;;;;;;;9.53;3.83;;;1.80;99.90;;;;;;5003434;28;20645;-44
2022/03/18 04:58:32;;;;;;;12.63;3.97;;;1.90;99.90;;;;;;4987364;28;20766;-46
2022/03/18 05:00:58;;;;;;;9.03;3.87;;;1.90;99.90;;;;;;5007776;28;20206;-43
2022/03/18 05:03:25;;;;;;;7.47;3.80;;;1.80;99.90;;;;;;4989796;28;20230;-48
2022/03/18 05:05:52;;;;;;;8.17;3.47;;;1.80;99.90;;;;;;5009823;28;20420;-43
2022/03/18 05:08:19;;;;;;;5.13;3.47;;;1.90;99.90;;;;;;5011989;28;20229;-49
2022/03/18 05:10:48;;;;;;;7.63;3.33;;;2.00;99.90;;;;;;5003002;28;20274;-45
2022/03/18 05:13:17;;;;;;;6.00;3.20;;;1.90;99.90;;;;;;5019766;28;20237;-48
2022/03/18 05:15:44;;;;;;;12.27;3.97;;;2.00;99.90;;;;;;4993991;28;20516;-46
2022/03/18 05:18:11;;;;;;;9.17;3.90;;;1.90;99.90;;;;;;4982431;28;20548;-43
2022/03/18 05:20:38;;;;;;;8.07;4.23;;;2.00;99.90;;;;;;4995267;28;20313;-46
2022/03/18 05:23:04;;;;;;;5.63;3.97;;;2.00;99.90;;;;;;4999297;28;20340;-48
2022/03/18 05:25:31;;;;;;;8.37;3.60;;;2.00;99.90;;;;;;4995802;28;20312;-46
2022/03/18 05:27:58;;;;;;;11.07;4.27;;;2.00;99.90;;;;;;5004449;28;20222;-48
2022/03/18 05:30:26;;;;;;;8.40;4.27;;;2.00;99.90;;;;;;4995416;28;20637;-44
2022/03/18 05:32:53;;;;;;;7.43;3.53;;;1.90;99.90;;;;;;5007613;28;20671;-45
2022/03/18 05:35:20;;;;;;;8.93;3.93;;;2.00;99.90;;;;;;4986828;28;20379;-44
2022/03/18 05:37:47;;;;;;;6.27;3.77;;;2.00;99.90;;;;;;5004773;28;20225;-44
2022/03/18 05:40:18;;;;;;;10.83;4.80;;;2.00;99.90;;;;;;4990100;28;20204;-43
2022/03/18 05:42:45;;;;;;;5.83;3.87;;;2.00;99.90;;;;;;5007192;28;20230;-45
2022/03/18 05:45:12;;;;;;;8.83;4.13;;;2.00;99.90;;;;;;4992829;28;20213;-47
2022/03/18 05:47:40;;;;;;;7.93;3.90;;;2.00;99.90;;;;;;4994366;28;20567;-44
2022/03/18 05:50:09;;;;;;;10.63;4.00;;;2.00;99.90;;;;;;5001932;28;20666;-45
2022/03/18 05:52:37;;;;;;;10.50;4.20;;;2.00;99.90;;;;;;4990243;28;20227;-45
2022/03/18 05:55:04;;;;;;;9.23;4.27;;;2.00;99.90;;;;;;5012554;28;20316;-45
2022/03/18 05:57:30;;;;;;;10.53;4.37;;;2.00;99.90;;;;;;4997291;28;20226;-44
2022/03/18 05:59:58;;;;;;;9.30;4.10;;;2.00;99.90;;;;;;5019328;28;20241;-44
2022/03/18 06:02:26;;;;;;;12.93;4.17;;;2.00;99.90;;;;;;5005728;28;20243;-44
2022/03/18 06:04:54;;;;;;;7.50;3.83;;;2.00;99.90;;;;;;4980189;28;20549;-44
2022/03/18 06:07:21;;;;;;;11.40;4.20;;;2.00;99.90;;;;;;5002707;28;20261;-44
2022/03/18 06:12:32;;;;;;;15.00;4.00;;;1.90;99.90;;;;;;4994883;28;20236;-45
2022/03/18 06:14:59;;;;;;;8.80;3.73;;;2.00;99.90;;;;;;4995006;28;20325;-45
2022/03/18 06:17:26;;;;;;;7.17;3.33;;;2.10;99.90;;;;;;4985265;28;20235;-44
2022/03/18 06:19:54;;;;;;;5.33;3.40;;;2.10;99.90;;;;;;4981002;28;20938;-44
2022/03/18 06:22:21;;;;;;;10.00;3.87;;;2.20;99.90;;;;;;5010105;28;20275;-44
2022/03/18 06:24:48;;;;;;;11.33;3.67;;;2.20;99.90;;;;;;5000433;28;20212;-45
2022/03/18 06:27:15;;;;;;;12.50;4.00;;;2.20;99.90;;;;;;5002376;28;20283;-44
2022/03/18 06:29:43;;;;;;;7.03;4.27;;;2.20;99.90;;;;;;5000388;28;20212;-45
2022/03/18 06:32:11;;;;;;;5.77;3.43;;;2.30;99.90;;;;;;5021289;28;20289;-43
2022/03/18 06:34:38;;;;;;;9.47;4.10;;;2.30;99.90;;;;;;5004209;28;20210;-45
2022/03/18 06:37:07;;;;;;;16.50;4.23;;;2.40;99.90;;;;;;5001947;28;20304;-45
2022/03/18 06:39:35;;;;;;;6.70;4.17;;;2.40;99.90;;;;;;5010694;28;20290;-44
2022/03/18 06:42:04;;;;;;;12.67;4.30;;;2.50;99.90;;;;;;5018562;28;20649;-44
2022/03/18 06:44:32;;;;;;;14.30;4.20;;;2.50;99.90;;;;;;5011446;28;20212;-44
2022/03/18 06:46:59;;;;;;;14.30;4.40;;;2.60;99.90;;;;;;5020938;28;20259;-44
2022/03/18 06:49:26;;;;;;;6.93;3.47;;;2.60;99.90;;;;;;5008502;28;20210;-44
2022/03/18 06:51:53;;;;;;;8.67;3.93;;;2.70;99.90;;;;;;4996133;28;20324;-44
2022/03/18 06:54:21;;;;;;;10.90;3.70;;;2.70;99.90;;;;;;5018964;28;20217;-44
2022/03/18 06:56:48;;;;;;;11.70;4.20;;;2.80;99.90;;;;;;5013527;28;20208;-44
2022/03/18 06:59:14;;;;;;;13.23;4.40;;;2.80;99.90;;;;;;5020472;28;20203;-44
2022/03/18 07:01:41;;;;;;;13.50;4.60;;;2.80;99.90;;;;;;5012813;28;20201;-44
2022/03/18 07:04:08;;;;;;;6.40;3.90;;;2.90;99.90;;;;;;5006702;28;20900;-45
2022/03/18 07:06:35;;;;;;;8.73;4.47;;;2.90;99.90;;;;;;5006869;28;20212;-45
2022/03/18 07:09:02;;;;;;;11.47;3.93;;;2.90;99.90;;;;;;5001892;28;20232;-44
2022/03/18 07:11:30;;;;;;;9.50;4.17;;;3.00;99.90;;;;;;5019390;28;20458;-44
2022/03/18 07:13:57;;;;;;;11.47;4.10;;;3.10;99.90;;;;;;5017720;28;20491;-44
2022/03/18 07:19:08;;;;;;;7.67;4.03;;;3.20;99.90;;;;;;5020982;28;20266;-45
2022/03/18 07:21:35;;;;;;;7.80;4.60;;;3.30;99.90;;;;;;4999547;28;20240;-45
2022/03/18 07:24:02;;;;;;;9.10;3.47;;;3.50;99.90;;;;;;5005922;28;20623;-44
2022/03/18 07:26:30;;;;;;;10.20;4.37;;;3.40;99.90;;;;;;5012775;28;20470;-44
2022/03/18 07:28:57;;;;;;;13.43;4.90;;;3.50;99.90;;;;;;5013391;28;20389;-45
2022/03/18 07:31:24;;;;;;;18.60;5.00;;;3.60;99.90;;;;;;5008688;28;20213;-45
2022/03/18 07:33:52;;;;;;;11.13;3.90;;;3.70;99.90;;;;;;5016856;28;20380;-45
2022/03/18 07:36:19;;;;;;;10.73;4.33;;;3.70;99.90;;;;;;5010179;28;20324;-44
2022/03/18 07:38:46;;;;;;;16.63;4.47;;;3.90;99.90;;;;;;4993716;28;20235;-44
2022/03/18 07:41:13;;;;;;;8.63;4.47;;;4.00;99.90;;;;;;5008963;28;20614;-45
2022/03/18 07:43:41;;;;;;;15.57;4.33;;;4.10;99.90;;;;;;5018869;28;20226;-44
2022/03/18 07:46:08;;;;;;;9.60;4.97;;;4.20;99.90;;;;;;5023072;28;20475;-45
2022/03/18 07:48:39;;;;;;;10.40;5.30;;;4.40;99.90;;;;;;5012116;28;20277;-44
2022/03/18 07:51:06;;;;;;;12.20;7.00;;;4.50;99.90;;;;;;5006404;28;20842;-44
2022/03/18 07:53:33;;;;;;;16.30;6.27;;;4.70;99.90;;;;;;4979681;28;20360;-45
2022/03/18 07:56:00;;;;;;;22.70;7.00;;;4.90;99.90;;;;;;5010193;28;20220;-45
2022/03/18 07:58:27;;;;;;;14.63;6.67;;;4.90;99.90;;;;;;5008047;28;20252;-45
2022/03/18 08:00:55;;;;;;;13.40;6.10;;;5.00;99.90;;;;;;5008190;28;20522;-45
2022/03/18 08:03:22;;;;;;;12.23;5.77;;;5.10;99.90;;;;;;5008772;28;20240;-44
2022/03/18 08:05:49;;;;;;;14.10;6.40;;;5.10;99.90;;;;;;5021287;28;20206;-46
2022/03/18 08:08:15;;;;;;;13.60;6.10;;;5.10;99.90;;;;;;4996704;28;20409;-44
2022/03/18 08:10:42;;;;;;;10.23;5.50;;;5.10;99.90;;;;;;5002683;28;20503;-45
2022/03/18 08:13:09;;;;;;;11.37;6.23;;;5.20;99.90;;;;;;5007835;28;20301;-44
2022/03/18 08:15:37;;;;;;;18.53;6.40;;;5.20;99.90;;;;;;5012859;28;20294;-45
2022/03/18 08:18:05;;;;;;;12.53;4.77;;;5.20;99.90;;;;;;5014126;28;20623;-45
2022/03/18 08:20:39;;;;;;;8.93;5.17;;;5.30;99.90;;;;;;5012360;28;20198;-44
2022/03/18 08:23:06;;;;;;;11.27;5.07;;;5.30;99.90;;;;;;5006756;28;20240;-45
2022/03/18 08:25:32;;;;;;;7.27;5.20;;;5.40;99.90;;;;;;5003045;28;20467;-44
2022/03/18 08:27:59;;;;;;;11.73;5.13;;;5.40;99.90;;;;;;4999223;28;20218;-46
2022/03/18 08:30:27;;;;;;;13.47;5.40;;;5.50;99.90;;;;;;5008424;28;20722;-45
2022/03/18 08:32:54;;;;;;;9.70;5.10;;;5.60;99.90;;;;;;5010817;28;20261;-45
2022/03/18 08:35:22;;;;;;;12.30;5.30;;;5.70;99.90;;;;;;5000334;28;20513;-45
2022/03/18 08:37:58;;;;;;;13.10;4.97;;;5.70;99.90;;;;;;5017500;28;20232;-45
2022/03/18 08:40:26;;;;;;;8.97;4.77;;;5.80;99.90;;;;;;4989232;28;20502;-45
2022/03/18 08:42:54;;;;;;;9.23;4.47;;;5.90;99.90;;;;;;5020180;28;20233;-45
2022/03/18 08:45:21;;;;;;;10.07;4.77;;;5.90;99.90;;;;;;5000312;28;20354;-45
2022/03/18 08:47:48;;;;;;;9.70;5.33;;;6.00;99.90;;;;;;5016268;28;20224;-45
2022/03/18 08:50:16;;;;;;;10.90;5.07;;;6.00;99.90;;;;;;5011984;28;20798;-44
2022/03/18 08:52:46;;;;;;;11.50;5.33;;;6.00;99.90;;;;;;5021265;28;20234;-45
2022/03/18 08:55:13;;;;;;;11.93;5.40;;;5.90;99.90;;;;;;4991954;28;20226;-44
2022/03/18 08:57:40;;;;;;;16.00;5.40;;;5.90;99.90;;;;;;5021822;28;20479;-45
2022/03/18 09:00:10;;;;;;;17.67;5.00;;;5.90;99.90;;;;;;5016428;28;20556;-44
2022/03/18 09:02:37;;;;;;;10.73;4.83;;;5.90;99.90;;;;;;5020036;28;20324;-45
2022/03/18 09:05:06;;;;;;;14.30;5.63;;;5.90;99.90;;;;;;5009803;28;20219;-44
2022/03/18 09:07:33;;;;;;;13.00;4.77;;;6.00;99.90;;;;;;5022770;28;20233;-45
2022/03/18 09:10:02;;;;;;;11.10;4.20;;;6.00;99.90;;;;;;5010033;28;20690;-45
2022/03/18 09:12:29;;;;;;;9.00;5.90;;;6.10;99.90;;;;;;4992884;28;20543;-45
2022/03/18 09:14:55;;;;;;;12.53;5.70;;;6.20;99.90;;;;;;5027018;28;20297;-45
2022/03/18 09:17:22;;;;;;;10.70;4.63;;;6.30;99.90;;;;;;5000408;28;21155;-44
2022/03/18 09:19:49;;;;;;;11.43;5.30;;;6.30;99.90;;;;;;5012011;28;20343;-45
2022/03/18 09:22:16;;;;;;;10.87;5.97;;;6.40;99.90;;;;;;5020857;28;20581;-44
2022/03/18 09:24:45;;;;;;;13.67;6.33;;;6.40;99.90;;;;;;5021886;28;20242;-45
2022/03/18 09:27:14;;;;;;;15.57;6.23;;;6.40;99.90;;;;;;4993849;28;20226;-44
2022/03/18 09:29:41;;;;;;;10.63;6.40;;;6.50;99.90;;;;;;4997275;28;20284;-45
2022/03/18 09:32:09;;;;;;;14.00;6.90;;;6.50;99.90;;;;;;5014531;28;20214;-46
2022/03/18 09:34:36;;;;;;;16.13;6.83;;;6.60;99.90;;;;;;5002903;28;20240;-44
2022/03/18 09:37:03;;;;;;;16.70;7.10;;;6.60;99.90;;;;;;5022656;28;20204;-45
2022/03/18 09:39:30;;;;;;;13.80;6.57;;;6.70;99.90;;;;;;5025320;28;20415;-44
2022/03/18 09:41:57;;;;;;;10.37;6.57;;;6.70;99.90;;;;;;4993633;28;20324;-48
2022/03/18 09:44:32;;;;;;;13.10;6.97;;;6.70;99.90;;;;;;5013105;28;20589;-45
2022/03/18 09:47:02;;;;;;;12.90;7.53;;;6.80;99.90;;;;;;5017596;28;20235;-45
2022/03/18 09:49:29;;;;;;;13.70;7.07;;;6.90;99.90;;;;;;5002987;28;20549;-45
2022/03/18 09:51:56;;;;;;;11.00;7.60;;;7.00;99.90;;;;;;5025834;28;20210;-45
2022/03/18 09:54:24;;;;;;;20.00;8.20;;;7.00;99.90;;;;;;5023015;28;20209;-45
2022/03/18 09:56:51;;;;;;;15.40;7.37;;;7.10;99.90;;;;;;5010070;28;20285;-46
2022/03/18 09:59:19;;;;;;;16.47;7.50;;;7.20;99.90;;;;;;5011954;28;20310;-45
2022/03/18 10:01:47;;;;;;;25.10;8.70;;;7.30;99.90;;;;;;5022848;28;20201;-47
2022/03/18 10:04:14;;;;;;;19.40;7.90;;;7.40;99.90;;;;;;5001511;28;20518;-46
2022/03/18 10:06:43;;;;;;;12.87;7.23;;;7.50;99.90;;;;;;5022675;28;20249;-47
2022/03/18 10:09:12;;;;;;;12.70;7.03;;;7.60;99.90;;;;;;5020615;28;20233;-45
2022/03/18 10:11:43;;;;;;;15.60;7.53;;;7.70;99.90;;;;;;5009376;28;20210;-46
2022/03/18 10:14:15;;;;;;;12.80;7.53;;;7.70;99.90;;;;;;5010681;28;20292;-45
2022/03/18 10:16:43;;;;;;;15.20;7.40;;;7.80;99.90;;;;;;5006060;28;20244;-45
2022/03/18 10:19:13;;;;;;;16.50;7.43;;;7.90;99.90;;;;;;5009997;28;20236;-45
2022/03/18 10:21:54;;;;;;;15.53;7.03;;;7.90;99.90;;;;;;5010402;28;20278;-47
2022/03/18 10:24:27;;;;;;;13.90;7.00;;;7.90;99.90;;;;;;5029958;28;20474;-45
2022/03/18 10:27:08;;;;;;;19.80;8.43;;;8.10;99.90;;;;;;5016519;28;20210;-46
2022/03/18 10:29:40;;;;;;;17.67;7.53;;;8.20;99.90;;;;;;4996706;28;20287;-46
2022/03/18 10:32:08;;;;;;;16.27;7.77;;;8.40;99.90;;;;;;5006092;28;20476;-44
2022/03/18 10:37:22;;;;;;;15.50;7.83;;;8.50;99.90;;;;;;5017030;28;20221;-45
2022/03/18 10:39:50;;;;;;;12.43;7.03;;;8.50;99.90;;;;;;5021192;28;20422;-45
2022/03/18 10:42:19;;;;;;;18.50;7.17;;;8.50;99.90;;;;;;5014876;28;20728;-45
2022/03/18 10:44:49;;;;;;;14.37;7.07;;;8.50;99.90;;;;;;5025116;28;20278;-46
2022/03/18 10:47:30;;;;;;;12.80;6.73;;;8.50;99.90;;;;;;5010776;28;20491;-45
2022/03/18 10:50:24;;;;;;;13.97;7.30;;;8.60;99.90;;;;;;5011826;28;20245;-46
2022/03/18 10:53:07;;;;;;;15.50;6.63;;;8.70;99.90;;;;;;5009932;28;20583;-45
2022/03/18 10:55:37;;;;;;;11.50;6.63;;;8.60;99.90;;;;;;5015991;28;20496;-46
2022/03/18 10:58:10;;;;;;;14.10;7.23;;;8.70;99.90;;;;;;5003326;28;20497;-45
2022/03/18 11:00:40;;;;;;;16.53;7.50;;;8.80;99.90;;;;;;5017367;28;20252;-45
2022/03/18 11:03:07;;;;;;;16.63;7.73;;;8.90;99.90;;;;;;5001789;28;20302;-45
2022/03/18 11:05:38;;;;;;;17.50;7.67;;;9.00;99.90;;;;;;5014050;28;20210;-46
2022/03/18 11:08:07;;;;;;;14.77;7.17;;;9.10;99.90;;;;;;5007930;28;20410;-45
2022/03/18 11:13:22;;;;;;;14.87;6.93;;;9.10;99.90;;;;;;5021018;28;20636;-45
2022/03/18 11:15:50;;;;;;;13.70;6.30;;;9.20;99.90;;;;;;5003232;28;20206;-46
2022/03/18 11:18:19;;;;;;;17.70;7.50;;;9.20;99.90;;;;;;5012540;28;20471;-45
2022/03/18 11:20:51;;;;;;;11.63;7.07;;;9.20;99.90;;;;;;5011032;28;20471;-46
2022/03/18 11:23:19;;;;;;;10.93;6.88;;;9.20;99.90;;;;;;4998277;28;20261;-46
2022/03/18 11:25:49;;;;;;;15.50;7.67;;;9.20;99.90;;;;;;5013212;28;20516;-45
2022/03/18 11:28:18;;;;;;;11.47;6.40;;;9.30;99.90;;;;;;5012691;28;20427;-46
2022/03/18 11:30:47;;;;;;;17.40;7.33;;;9.30;99.90;;;;;;5008668;28;20281;-44
2022/03/18 11:33:23;;;;;;;20.07;6.77;;;9.40;99.90;;;;;;4994993;28;20580;-46
2022/03/18 11:36:11;;;;;;;17.77;7.80;;;9.40;99.90;;;;;;5015443;28;20444;-46
2022/03/18 11:39:02;;;;;;;16.33;8.40;;;9.50;99.90;;;;;;4996105;28;20218;-49
2022/03/18 11:41:48;;;;;;;16.73;7.87;;;9.60;99.90;;;;;;5014753;28;20213;-48
2022/03/18 11:44:42;;;;;;;18.77;7.37;;;9.70;99.90;;;;;;5014759;28;20406;-45
2022/03/18 11:47:38;;;;;;;15.30;6.30;;;9.80;99.90;;;;;;5012064;28;20228;-48
2022/03/18 11:50:48;;;;;;;17.00;6.83;;;9.70;99.90;;;;;;5017232;28;20198;-45
2022/03/18 11:53:51;;;;;;;12.87;6.50;;;9.80;99.90;;;;;;5007310;28;20430;-45
2022/03/18 11:56:22;;;;;;;14.87;6.90;;;9.80;99.90;;;;;;5024888;28;20205;-45
2022/03/18 11:58:49;;;;;;;10.83;6.00;;;9.90;99.90;;;;;;5015195;28;20237;-46
2022/03/18 12:01:41;;;;;;;12.80;6.10;;;10.00;99.90;;;;;;5004172;28;20209;-45
2022/03/18 12:04:08;;;;;;;19.13;6.67;;;10.10;99.90;;;;;;5000041;28;20225;-46
2022/03/18 12:07:09;;;;;;;12.07;6.20;;;10.20;99.90;;;;;;5016920;28;20207;-46
2022/03/18 12:10:07;;;;;;;12.13;6.17;;;10.40;99.90;;;;;;4995735;28;20208;-46
2022/03/18 12:12:36;;;;;;;12.27;6.50;;;10.30;99.90;;;;;;4982099;28;20432;-45
2022/03/18 12:15:05;;;;;;;19.40;7.43;;;10.40;99.90;;;;;;5001386;28;20229;-45
2022/03/18 12:17:40;;;;;;;13.50;7.72;;;10.70;99.90;;;;;;5011649;28;20216;-46
2022/03/18 12:20:09;;;;;;;15.27;7.47;;;10.60;99.90;;;;;;5001206;28;20224;-45
2022/03/18 12:22:40;;;;;;;13.90;7.22;;;10.70;99.90;;;;;;5018141;28;20449;-46
2022/03/18 12:25:08;;;;;;;19.02;6.85;;;10.90;99.90;;;;;;5003569;28;20212;-45
2022/03/18 12:27:36;;;;;;;16.83;7.70;;;11.00;99.90;;;;;;4998604;28;20233;-46
2022/03/18 12:30:06;;;;;;;13.02;6.80;;;11.00;99.90;;;;;;5015505;28;20622;-45
2022/03/18 12:32:33;;;;;;;16.10;6.45;;;11.10;99.90;;;;;;4991972;28;20226;-45
2022/03/18 12:35:01;;;;;;;13.20;6.47;;;11.20;99.90;;;;;;5006429;28;20210;-45
2022/03/18 12:37:30;;;;;;;10.70;6.93;;;11.20;99.90;;;;;;5019761;28;20232;-46
2022/03/18 12:40:07;;;;;;;13.82;6.85;;;11.10;99.90;;;;;;5005125;28;20826;-45
2022/03/18 12:42:46;;;;;;;14.88;6.32;;;11.00;99.90;;;;;;5017283;28;20232;-46
2022/03/18 12:45:13;;;;;;;21.40;6.72;;;11.20;99.90;;;;;;5023252;28;20213;-46
2022/03/18 12:47:40;;;;;;;17.83;6.90;;;11.20;99.90;;;;;;4994133;28;20281;-45
2022/03/18 12:50:07;;;;;;;17.63;7.07;;;11.30;99.90;;;;;;5006128;28;20281;-46
2022/03/18 12:52:43;;;;;;;12.75;6.65;;;11.30;99.90;;;;;;5018443;28;20231;-47
2022/03/18 12:55:13;;;;;;;17.80;7.75;;;11.30;99.90;;;;;;5006395;28;20208;-46
2022/03/18 12:57:42;;;;;;;15.73;7.47;;;11.40;99.90;;;;;;5004795;28;20527;-45
2022/03/18 13:00:11;;;;;;;12.90;6.80;;;11.50;99.90;;;;;;5022250;28;20486;-47
2022/03/18 13:02:41;;;;;;;9.52;5.70;;;11.40;99.90;;;;;;5002635;28;20226;-50
2022/03/18 13:05:13;;;;;;;11.05;5.72;;;11.50;99.90;;;;;;5006276;28;20265;-47
2022/03/18 13:07:40;;;;;;;13.75;5.47;;;11.50;99.90;;;;;;4990192;28;20447;-46
2022/03/18 13:10:07;;;;;;;8.73;4.70;;;11.60;99.90;;;;;;5004208;28;20525;-46
2022/03/18 13:12:37;;;;;;;12.10;4.88;;;11.60;99.90;;;;;;4996786;28;20236;-46
2022/03/18 13:15:15;;;;;;;12.98;5.78;;;11.70;99.90;;;;;;5004928;28;20206;-46